Latest Weather Observations for Coolangatta

IDQ60801

Issued at 8:32 pm EST Thursday 11 February 2016 (issued every 30 minutes, with the page automatically refreshed every 10 minutes)

About weather observations | Map of weather stations | Latest weather observations for QLD | Other Formats
Station Details ID: 040717 Name: COOLANGATTA Lat: -28.17 Lon: 153.51 Height: 4.0 m
Data from the previous 72 hours. | See also: Recent months at Coolangatta
Date/Time
EST
Temp
°C
App
Temp
°C
Dew
Point
Rel
Hum
%
Delta-T
°C
Wind Press
QNH
hPa
Press
MSL
hPa
Rain
since 9 am
mm
Dir
 
Spd
km/h
Gust
km/h
Spd
kts
Gust
kts
11/08:30pm 23.0 24.3 18.5 76 2.8 S 9 13 5 7 1013.8 1013.7 0.0
11/08:00pm 23.6 25.1 18.9 75 3.0 SSE 9 17 5 9 1013.6 1013.5 0.0
11/07:30pm 23.9 24.8 18.3 71 3.5 SSE 11 17 6 9 1013.4 1013.3 0.0
11/07:00pm 24.4 25.2 19.0 72 3.4 SSE 13 19 7 10 1013.2 1013.1 0.0
11/06:30pm 24.4 24.1 18.3 69 3.8 SSE 17 26 9 14 1013.1 1013.0 0.0
11/06:00pm 25.1 24.1 18.8 68 4.0 SSE 22 30 12 16 1012.7 1012.6 0.0
11/05:30pm 25.6 24.4 18.5 65 4.5 SSE 22 30 12 16 1012.3 1012.2 0.0
11/05:00pm 26.5 24.8 18.9 63 4.9 SE 26 39 14 21 1012.0 1011.9 0.0
11/04:30pm 26.3 24.3 18.4 61 5.0 SSE 26 35 14 19 1011.9 1011.8 0.0
11/04:00pm 27.4 25.4 18.4 58 5.7 SE 26 37 14 20 1011.9 1011.8 0.0
11/03:30pm 27.1 25.3 18.7 60 5.4 SSE 26 39 14 21 1011.8 1011.7 0.0
11/03:00pm 27.5 25.0 18.8 59 5.6 SE 30 39 16 21 1011.8 1011.7 0.0
11/02:30pm 28.0 26.4 19.2 58 5.7 SE 26 33 14 18 1011.9 1011.8 0.0
11/02:00pm 27.8 25.8 19.1 59 5.6 SE 28 39 15 21 1012.2 1012.1 0.0
11/01:30pm 27.2 25.6 19.3 62 5.1 SE 26 35 14 19 1012.6 1012.5 0.0
11/01:00pm 28.0 25.4 18.7 57 6.0 ESE 30 37 16 20 1012.8 1012.7 0.0
11/12:30pm 27.7 25.3 19.0 59 5.6 ESE 30 37 16 20 1013.1 1013.0 0.0
11/12:00pm 28.1 27.2 19.9 61 5.4 SSE 24 32 13 17 1013.2 1013.1 0.0
11/11:30am 27.3 25.9 18.9 60 5.4 SE 24 35 13 19 1013.2 1013.1 0.0
11/11:00am 27.3 26.2 19.4 62 5.1 SE 24 35 13 19 1013.4 1013.3 0.0
11/10:30am 26.0 25.0 18.9 65 4.5 SSE 22 32 12 17 1013.5 1013.4 0.0
11/10:00am 25.7 24.8 19.1 67 4.2 SE 22 30 12 16 1013.6 1013.5 0.0
11/09:30am 25.3 24.2 18.7 67 4.2 SSE 22 32 12 17 1013.5 1013.4 0.0
11/09:00am 26.2 26.5 19.6 67 4.3 SSE 17 26 9 14 1013.5 1013.4 10.0
11/08:30am 25.3 25.1 19.4 70 3.8 S 19 26 10 14 1013.4 1013.3 10.0
11/08:00am 24.8 25.4 19.4 72 3.5 S 15 26 8 14 1013.4 1013.3 10.0
11/07:30am 23.9 24.5 19.4 76 2.9 SSW 15 22 8 12 1013.3 1013.2 10.0
11/07:00am 23.0 24.8 19.6 81 2.2 SSW 9 13 5 7 1013.2 1013.1 10.0
11/06:30am 21.4 23.0 19.1 87 1.5 SSW 9 11 5 6 1012.9 1012.8 10.0
11/06:00am 20.8 22.7 18.9 89 1.2 SSW 7 11 4 6 1012.6 1012.5 10.0
11/05:30am 20.4 21.7 18.5 89 1.2 SSW 9 11 5 6 1012.3 1012.2 10.0
11/05:00am 20.4 22.2 18.7 90 1.1 SSW 7 11 4 6 1012.1 1012.0 10.0
11/04:30am 20.5 21.9 18.6 89 1.2 SSW 9 11 5 6 1011.9 1011.8 10.0
11/04:00am 20.8 22.2 18.7 88 1.3 SSW 9 13 5 7 1011.7 1011.6 10.0
11/03:30am 20.5 21.9 18.6 89 1.2 S 9 11 5 6 1011.7 1011.6 10.0
11/03:00am 20.8 22.2 18.7 88 1.3 SSW 9 13 5 7 1011.9 1011.8 10.0
11/02:30am 20.7 22.4 18.6 88 1.3 SSW 7 9 4 5 1012.1 1012.0 10.0
11/02:00am 20.9 22.0 18.8 88 1.3 SSW 11 15 6 8 1012.3 1012.2 10.0
11/01:30am 20.6 22.0 18.7 89 1.2 S 9 11 5 6 1012.5 1012.4 10.0
11/01:00am 20.8 22.5 18.6 87 1.4 S 7 11 4 6 1012.8 1012.7 10.0
11/12:30am 21.0 22.1 18.8 87 1.4 SSW 11 15 6 8 1013.0 1012.9 10.0
11/12:00am 21.0 22.7 18.6 86 1.5 SSW 7 11 4 6 1013.2 1013.1 10.0
 
Date/Time
EST
Temp
°C
App
Temp
°C
Dew
Point
Rel
Hum
%
Delta-T
°C
Wind Press
QNH
hPa
Press
MSL
hPa
Rain
since 9 am
mm
Dir
 
Spd
km/h
Gust
km/h
Spd
kts
Gust
kts
10/11:30pm 21.4 22.5 18.8 85 1.6 SW 11 15 6 8 1013.5 1013.4 10.0
10/11:00pm 21.6 22.8 19.0 85 1.6 SSW 11 19 6 10 1013.9 1013.8 10.0
10/10:30pm 21.7 22.4 18.9 84 1.8 SSW 13 19 7 10 1013.9 1013.8 10.0
10/10:00pm 21.7 23.0 19.3 86 1.5 SSW 11 15 6 8 1014.0 1013.9 10.0
10/09:30pm 22.0 22.6 19.5 86 1.6 S 15 20 8 11 1014.0 1013.9 10.0
10/09:00pm 21.8 23.0 19.9 89 1.2 SSW 13 17 7 9 1014.0 1013.9 10.0
10/08:30pm 21.6 23.1 19.7 89 1.2 SSW 11 15 6 8 1014.1 1014.0 10.0
10/08:00pm 21.5 23.0 19.8 90 1.1 S 11 17 6 9 1014.0 1013.9 10.0
10/07:30pm 21.4 22.6 19.9 91 1.0 SSW 13 17 7 9 1013.7 1013.6 9.8
10/07:00pm 21.4 22.8 19.5 89 1.2 SSW 11 17 6 9 1013.7 1013.6 9.8
10/06:30pm 21.3 22.6 20.1 93 0.8 SSW 13 19 7 10 1013.7 1013.6 9.8
10/06:25pm 21.2 22.1 20.0 93 0.8 SSW 15 24 8 13 1013.8 1013.7 9.8
10/06:00pm 21.1 22.4 20.1 94 0.6 S 13 20 7 11 1013.6 1013.5 9.4
10/05:30pm 21.2 21.3 20.0 93 0.8 S 19 28 10 15 1013.2 1013.1 8.4
10/05:28pm 21.4 21.6 20.2 93 0.8 S 19 28 10 15 1013.1 1013.0 8.4
10/05:19pm 21.4 21.9 20.0 92 0.9 S 17 26 9 14 1013.0 1012.9 8.2
10/05:01pm 21.5 20.8 19.6 89 1.2 SSE 22 32 12 17 1012.7 1012.6 8.2
10/05:00pm 21.6 21.4 19.7 89 1.2 SSE 20 32 11 17 1012.7 1012.6 8.2
10/04:30pm 22.5 23.0 21.1 92 0.9 SSE 20 32 11 17 1012.5 1012.4 8.2
10/04:25pm 22.6 23.2 21.4 93 0.8 SE 20 32 11 17 1012.5 1012.4 8.2
10/04:22pm 22.6 23.2 21.4 93 0.8 SE 20 32 11 17 1012.5 1012.4 8.2
10/04:04pm 21.9 22.1 20.5 92 0.9 SSE 20 32 11 17 1012.6 1012.5 7.8
10/04:00pm 21.8 21.5 20.4 92 0.9 SSE 22 32 12 17 1012.6 1012.5 6.8
10/03:37pm 23.2 21.4 20.3 84 1.9 SSE 30 41 16 22 1012.4 1012.3 0.8
10/03:30pm 24.9 23.2 19.7 73 3.4 SSE 28 39 15 21 1012.3 1012.2 0.8
10/03:00pm 26.2 23.3 19.3 65 4.4 SE 33 44 18 24 1012.1 1012.0 0.8
10/02:30pm 28.1 25.2 18.8 57 6.0 SSE 32 43 17 23 1012.1 1012.0 0.8
10/02:00pm 28.0 25.9 19.0 58 5.8 SSE 28 39 15 21 1012.4 1012.3 0.8
10/01:30pm 27.0 24.8 18.6 60 5.4 SE 28 39 15 21 1012.7 1012.6 0.8
10/01:00pm 27.1 24.5 19.4 62 5.0 SE 32 43 17 23 1013.0 1012.9 0.8
10/12:30pm 27.7 26.0 19.0 59 5.6 SSE 26 35 14 19 1012.9 1012.8 0.8
10/12:00pm 27.6 25.6 18.3 57 5.9 SSE 26 37 14 20 1013.1 1013.0 0.8
10/11:30am 27.8 26.2 19.1 59 5.6 SSE 26 37 14 20 1013.1 1013.0 0.8
10/11:00am 27.1 25.9 19.2 62 5.1 SSE 24 32 13 17 1013.5 1013.4 0.8
10/10:30am 25.9 25.0 18.3 63 4.8 SSE 20 30 11 16 1013.7 1013.6 0.8
10/10:00am 25.9 24.9 18.8 65 4.5 S 22 35 12 19 1013.9 1013.8 0.8
10/09:30am 23.8 24.6 18.2 71 3.5 S 11 15 6 8 1014.3 1014.2 0.8
10/09:00am 24.9 25.0 18.4 67 4.1 SSW 15 20 8 11 1014.4 1014.3 0.0
10/08:30am 24.1 23.7 18.1 69 3.8 SSW 17 24 9 13 1014.3 1014.2 0.0
10/08:00am 24.2 23.3 17.7 67 4.1 SSW 19 30 10 16 1014.0 1013.9 0.0
10/07:30am 23.7 24.1 18.1 71 3.5 SSW 13 20 7 11 1013.8 1013.7 0.0
10/07:00am 22.6 22.3 17.3 72 3.3 SSW 15 22 8 12 1013.5 1013.4 0.0
10/06:30am 22.3 22.4 17.4 74 3.0 SSW 13 19 7 10 1013.4 1013.3 0.0
10/06:00am 22.2 21.5 17.3 74 3.0 SSW 17 26 9 14 1013.0 1012.9 0.0
10/05:30am 21.9 21.1 17.1 74 2.9 SSW 17 24 9 13 1012.8 1012.7 0.0
10/05:00am 21.8 21.0 17.2 75 2.8 SSW 17 26 9 14 1012.6 1012.5 0.0
10/04:30am 21.5 21.2 17.3 77 2.6 SSW 15 20 8 11 1012.5 1012.4 0.0
10/04:00am 21.9 21.7 17.7 77 2.6 SSW 15 20 8 11 1012.5 1012.4 0.0
10/03:30am 21.5 21.5 17.3 77 2.6 SSW 13 20 7 11 1012.5 1012.4 0.0
10/03:00am 21.6 21.3 17.4 77 2.6 SSW 15 19 8 10 1012.5 1012.4 0.0
10/02:30am 21.3 20.8 17.7 80 2.2 SSW 17 26 9 14 1012.8 1012.7 0.0
10/02:00am 21.4 20.6 18.0 81 2.1 S 19 30 10 16 1012.9 1012.8 0.0
10/01:30am 22.4 21.9 17.8 75 2.9 S 17 26 9 14 1013.2 1013.1 0.0
10/01:00am 22.4 21.2 17.1 72 3.3 S 19 24 10 13 1013.4 1013.3 0.0
10/12:30am 22.4 21.5 16.9 71 3.4 S 17 24 9 13 1013.9 1013.8 0.0
10/12:00am 22.8 21.4 17.0 70 3.6 S 20 30 11 16 1014.3 1014.2 0.0
 
Date/Time
EST
Temp
°C
App
Temp
°C
Dew
Point
Rel
Hum
%
Delta-T
°C
Wind Press
QNH
hPa
Press
MSL
hPa
Rain
since 9 am
mm
Dir
 
Spd
km/h
Gust
km/h
Spd
kts
Gust
kts
09/11:30pm 22.9 21.6 16.9 69 3.7 S 19 26 10 14 1014.6 1014.5 0.0
09/11:00pm 22.8 21.9 16.8 69 3.7 S 17 26 9 14 1015.0 1014.9 0.0
09/10:30pm 22.5 21.2 16.8 70 3.5 S 19 26 10 14 1015.5 1015.4 0.0
09/10:00pm 22.3 21.5 17.0 72 3.2 S 17 24 9 13 1015.8 1015.7 0.0
09/09:30pm 22.7 21.3 16.9 70 3.6 S 20 30 11 16 1016.0 1015.9 0.0
09/09:00pm 22.7 21.4 16.9 70 3.6 S 19 26 10 14 1016.1 1016.0 0.0
09/08:30pm 22.7 21.4 16.7 69 3.7 S 19 24 10 13 1015.8 1015.7 0.0
09/08:00pm 23.1 21.2 16.6 67 4.0 S 22 32 12 17 1015.7 1015.6 0.0
09/07:30pm 23.3 21.9 17.1 68 3.8 S 20 32 11 17 1015.3 1015.2 0.0
09/07:00pm 23.6 21.8 16.9 66 4.1 S 22 30 12 16 1015.2 1015.1 0.0
09/06:30pm 24.1 20.9 16.4 62 4.7 S 28 41 15 22 1015.1 1015.0 0.0
09/06:00pm 24.8 22.8 16.5 60 5.1 SSE 22 33 12 18 1014.9 1014.8 0.0
09/05:33pm 25.5 21.7 15.8 55 5.9 SSE 30 48 16 26 1014.7 1014.6 0.0
09/05:30pm 25.6 22.1 16.5 57 5.6 SSE 30 46 16 25 1014.7 1014.6 0.0
09/05:03pm 26.0 21.9 16.5 55 5.9 SSE 33 52 18 28 1014.5 1014.4 0.0
09/05:00pm 26.0 21.5 16.3 55 6.0 SSE 35 52 19 28 1014.5 1014.4 0.0
09/04:30pm 26.9 23.6 17.9 57 5.7 S 32 50 17 27 1014.3 1014.2 0.0
09/04:23pm 26.5 22.7 16.7 55 6.1 SSE 32 50 17 27 1014.3 1014.2 0.0
09/04:00pm 26.4 22.0 17.5 58 5.6 SSE 37 54 20 29 1014.3 1014.2 0.0
09/03:30pm 26.8 21.7 16.7 54 6.3 SSE 39 54 21 29 1014.3 1014.2 0.0
09/03:02pm 26.9 21.7 16.5 53 6.4 SSE 39 59 21 32 1014.3 1014.2 0.0
09/03:00pm 27.4 22.6 16.7 52 6.6 SSE 37 54 20 29 1014.4 1014.3 0.0
09/02:42pm 27.0 22.4 17.2 55 6.1 SSE 37 56 20 30 1014.5 1014.4 0.0
09/02:30pm 27.4 22.9 17.3 54 6.3 SSE 37 54 20 29 1014.6 1014.5 0.0
09/02:15pm 26.7 22.1 16.0 52 6.6 SSE 35 54 19 29 1014.6 1014.5 0.0
09/02:00pm 27.7 23.8 17.8 54 6.3 SSE 35 52 19 28 1014.7 1014.6 0.0
09/01:36pm 27.4 22.8 16.1 50 7.0 SSE 35 57 19 31 1014.8 1014.7 0.0
09/01:30pm 27.6 22.4 15.6 48 7.3 SSE 37 50 20 27 1014.9 1014.8 0.0
09/01:10pm 27.6 24.1 18.0 55 6.1 SSE 33 52 18 28 1014.9 1014.8 0.0
09/01:00pm 27.3 22.6 16.9 53 6.5 SSE 37 54 20 29 1015.0 1014.9 0.0
09/12:32pm 27.8 24.4 17.6 53 6.4 SSE 32 52 17 28 1015.3 1015.2 0.0
09/12:30pm 27.7 24.2 17.8 54 6.3 SSE 33 48 18 26 1015.3 1015.2 0.0
09/12:19pm 27.2 22.9 17.7 56 6.0 SSE 37 56 20 30 1015.4 1015.3 0.0
09/12:00pm 27.2 22.9 16.8 53 6.5 SE 35 50 19 27 1015.5 1015.4 0.0
09/11:37am 27.1 22.3 15.5 49 7.1 SSE 35 54 19 29 1015.7 1015.6 0.0
09/11:30am 27.5 23.6 17.9 55 6.1 SSE 35 52 19 28 1015.7 1015.6 0.0
09/11:00am 27.7 24.3 17.8 54 6.3 SSE 32 48 17 26 1015.9 1015.8 0.0
09/10:47am 27.3 23.5 16.6 52 6.6 SSE 32 50 17 27 1015.9 1015.8 0.0
09/10:30am 27.7 23.4 17.8 54 6.3 SSE 37 54 20 29 1015.9 1015.8 0.0
09/10:00am 26.6 22.5 16.5 54 6.2 SSE 33 54 18 29 1015.9 1015.8 0.0
09/09:34am 26.7 22.4 16.9 55 6.1 SSE 35 50 19 27 1016.0 1015.9 0.0
09/09:30am 26.1 22.7 17.7 60 5.3 S 32 52 17 28 1016.0 1015.9 0.0
09/09:21am 25.3 22.2 17.5 62 4.9 S 30 52 16 28 1016.1 1016.0 0.0
09/09:00am 26.1 24.3 19.5 67 4.3 S 28 41 15 22 1016.0 1015.9 0.0
09/08:30am 25.2 24.2 18.9 68 4.0 S 22 33 12 18 1015.9 1015.8 0.0
09/08:00am 24.2 23.2 17.9 68 3.9 SSE 20 30 11 16 1015.9 1015.8 0.0
09/07:30am 24.4 23.5 18.1 68 4.0 S 20 32 11 17 1015.8 1015.7 0.0
09/07:00am 23.7 23.7 18.1 71 3.5 SSW 15 24 8 13 1015.5 1015.4 0.0
09/06:30am 22.6 22.9 17.9 75 2.9 SSW 13 20 7 11 1015.2 1015.1 0.0
09/06:00am 22.2 22.4 17.6 75 2.8 SSW 13 22 7 12 1014.8 1014.7 0.0
09/05:30am 22.2 22.0 17.6 75 2.8 SSW 15 20 8 11 1014.4 1014.3 0.0
09/05:00am 22.5 21.8 17.4 73 3.1 S 17 24 9 13 1014.1 1014.0 0.0
09/04:30am 22.4 21.7 17.3 73 3.1 SSW 17 24 9 13 1013.8 1013.7 0.0
09/04:00am 22.3 21.5 17.2 73 3.1 SSW 17 20 9 11 1013.7 1013.6 0.0
09/03:30am 22.9 22.3 16.7 68 3.8 SSW 15 20 8 11 1013.7 1013.6 0.0
09/03:00am 22.6 22.3 16.4 68 3.8 SSW 13 22 7 12 1013.7 1013.6 0.0
09/02:30am 23.1 22.1 16.6 67 4.0 SSW 17 26 9 14 1013.7 1013.6 0.0
09/02:00am 23.0 22.1 16.8 68 3.8 SSW 17 24 9 13 1013.8 1013.7 0.0
09/01:30am 22.9 22.1 17.1 70 3.6 SSW 17 26 9 14 1014.0 1013.9 0.0
09/01:00am 23.1 22.2 16.9 68 3.8 SSW 17 26 9 14 1014.3 1014.2 0.0
09/12:30am 23.1 22.4 17.3 70 3.6 SSW 17 24 9 13 1014.5 1014.4 0.0
09/12:00am 22.9 21.7 17.1 70 3.6 SSW 19 28 10 15 1014.9 1014.8 0.0
 
Date/Time
EST
Temp
°C
App
Temp
°C
Dew
Point
Rel
Hum
%
Delta-T
°C
Wind Press
QNH
hPa
Press
MSL
hPa
Rain
since 9 am
mm
Dir
 
Spd
km/h
Gust
km/h
Spd
kts
Gust
kts
08/11:30pm 22.9 22.6 17.4 71 3.4 SSW 15 24 8 13 1015.2 1015.1 0.0
08/11:00pm 23.1 22.5 17.6 71 3.4 SSW 17 24 9 13 1015.5 1015.4 0.0
08/10:30pm 23.1 22.3 18.0 73 3.2 S 19 28 10 15 1015.5 1015.4 0.0
08/10:00pm 23.2 22.3 18.1 73 3.2 S 20 30 11 16 1015.5 1015.4 0.0
08/09:30pm 22.9 22.2 18.2 75 2.9 S 19 26 10 14 1015.7 1015.6 0.0
08/09:00pm 23.1 22.3 18.0 73 3.2 SSW 19 26 10 14 1015.6 1015.5 0.0

Other Formats:

Comma delimited format used in spreadsheet applications
http://www.bom.gov.au/fwo/IDQ60801/IDQ60801.94592.axf

JavaScript Object Notation format (JSON) in row-major order
http://www.bom.gov.au/fwo/IDQ60801/IDQ60801.94592.json